Time;durP1;ratioP1;P1;durP2;ratioP2;P2;SDS_P1;SDS_P2;PMS_P1;PMS_P2;Temp;Humidity;BMP_temperature;BMP_pressure;BME280_temperature;BME280_humidity;BME280_pressure;Samples;Min_cycle;Max_cycle;Signal;HPM_P1;HPM_P2
2022/02/22 00:02:42;;;;;;;19.30;2.65;;;;;;;4.40;100.00;100593.91;6136247;28;20110;-80
2022/02/22 00:05:43;;;;;;;2.67;1.02;;;;;;;4.41;100.00;100598.22;6142271;29;20062;-79
2022/02/22 00:08:46;;;;;;;11.73;1.73;;;;;;;4.44;100.00;100599.88;6147271;28;20047;-78
2022/02/22 00:11:48;;;;;;;4.45;1.33;;;;;;;4.42;100.00;100612.94;6146463;28;20066;-79
2022/02/22 00:14:49;;;;;;;12.85;1.08;;;;;;;4.39;100.00;100615.63;6147548;28;20048;-79
2022/02/22 00:17:51;;;;;;;3.72;0.85;;;;;;;4.51;100.00;100619.63;6142832;28;20659;-79
2022/02/22 00:20:52;;;;;;;7.63;1.10;;;;;;;4.55;100.00;100642.06;6142670;28;20058;-79
2022/02/22 00:23:55;;;;;;;2.90;0.90;;;;;;;4.49;100.00;100653.47;6147596;28;20058;-83
2022/02/22 00:26:56;;;;;;;10.63;1.23;;;;;;;4.40;100.00;100642.50;6147950;28;20051;-80
2022/02/22 00:29:57;;;;;;;7.22;1.10;;;;;;;4.26;100.00;100658.50;6147287;28;20051;-80
2022/02/22 00:32:59;;;;;;;10.63;1.27;;;;;;;4.12;100.00;100661.50;6147567;28;20055;-80
2022/02/22 00:36:00;;;;;;;11.50;1.85;;;;;;;4.24;100.00;100670.72;6148218;28;20142;-80
2022/02/22 00:39:05;;;;;;;5.70;1.35;;;;;;;4.06;100.00;100679.88;6149030;28;20047;-80
2022/02/22 00:42:07;;;;;;;7.85;1.63;;;;;;;4.03;100.00;100682.56;6148098;28;20055;-80
2022/02/22 00:45:10;;;;;;;3.25;0.98;;;;;;;4.16;100.00;100685.66;6150187;28;20059;-80
2022/02/22 00:48:11;;;;;;;9.32;1.00;;;;;;;4.03;100.00;100701.59;6152876;28;20055;-81
2022/02/22 00:51:13;;;;;;;5.53;1.42;;;;;;;4.03;100.00;100709.41;6152654;28;20061;-80
2022/02/22 00:54:15;;;;;;;5.82;0.88;;;;;;;4.04;100.00;100715.44;6153377;28;20051;-81
2022/02/22 00:57:17;;;;;;;5.47;1.65;;;;;;;3.97;100.00;100734.72;6153024;28;20051;-80
2022/02/22 01:00:19;;;;;;;7.03;1.10;;;;;;;3.95;100.00;100733.91;6152033;28;20063;-81
2022/02/22 01:03:20;;;;;;;10.10;1.20;;;;;;;4.09;100.00;100752.63;6151758;28;20047;-78
2022/02/22 01:06:21;;;;;;;8.32;0.50;;;;;;;4.16;100.00;100750.69;6151787;28;20078;-81
2022/02/22 01:09:24;;;;;;;5.07;1.20;;;;;;;4.17;100.00;100761.03;6153407;28;20051;-80
2022/02/22 01:12:26;;;;;;;3.15;1.08;;;;;;;4.11;100.00;100782.03;6153348;28;20490;-80
2022/02/22 01:15:27;;;;;;;8.70;0.90;;;;;;;4.10;100.00;100776.88;6152507;28;20058;-80
2022/02/22 01:18:29;;;;;;;4.07;1.25;;;;;;;4.20;100.00;100779.19;6152768;28;20058;-81
2022/02/22 01:21:31;;;;;;;3.30;1.23;;;;;;;4.09;100.00;100783.81;6151526;28;20055;-80
2022/02/22 01:24:34;;;;;;;2.05;0.88;;;;;;;4.02;100.00;100790.06;6151412;28;20093;-80
2022/02/22 01:27:35;;;;;;;5.38;1.17;;;;;;;4.05;100.00;100811.66;6151157;28;20070;-81
2022/02/22 01:30:37;;;;;;;2.28;1.33;;;;;;;4.13;100.00;100819.22;6150649;28;20047;-80
2022/02/22 01:33:38;;;;;;;6.32;1.58;;;;;;;4.12;100.00;100814.06;6152270;28;20074;-79
2022/02/22 01:36:39;;;;;;;11.88;2.00;;;;;;;4.06;100.00;100818.53;6151431;28;20055;-80
2022/02/22 01:39:42;;;;;;;4.63;1.05;;;;;;;4.04;100.00;100825.53;6151824;28;20055;-81
2022/02/22 01:42:44;;;;;;;2.70;0.90;;;;;;;4.03;100.00;100826.41;6151255;28;20051;-81
2022/02/22 01:45:46;;;;;;;6.07;1.05;;;;;;;3.90;100.00;100840.59;6152511;28;20047;-79
2022/02/22 01:48:47;;;;;;;7.18;1.35;;;;;;;3.93;100.00;100835.34;6146319;28;20054;-80
2022/02/22 01:51:49;;;;;;;5.78;1.92;;;;;;;4.01;100.00;100836.00;6126414;28;20059;-81
2022/02/22 01:54:51;;;;;;;9.27;1.58;;;;;;;3.95;100.00;100845.69;6133800;29;20047;-81
2022/02/22 01:57:53;;;;;;;3.67;0.90;;;;;;;3.92;100.00;100844.03;6139262;28;20423;-81
2022/02/22 02:00:54;;;;;;;7.68;1.45;;;;;;;3.86;100.00;100845.91;6126954;29;20047;-81
2022/02/22 02:03:56;;;;;;;9.82;1.65;;;;;;;3.97;100.00;100857.78;6131363;29;20043;-80
2022/02/22 02:06:58;;;;;;;7.50;1.17;;;;;;;3.94;100.00;100863.03;6130048;28;20059;-81
2022/02/22 02:10:01;;;;;;;4.68;1.45;;;;;;;3.87;100.00;100864.09;6127654;29;20063;-81
2022/02/22 02:13:03;;;;;;;11.82;1.58;;;;;;;3.99;100.00;100875.94;6125691;29;20044;-81
2022/02/22 02:16:06;;;;;;;5.63;1.33;;;;;;;3.93;100.00;100883.88;6127007;29;20246;-80
2022/02/22 02:19:08;;;;;;;4.97;1.17;;;;;;;3.71;100.00;100897.38;6127887;29;20048;-79
2022/02/22 02:22:11;;;;;;;7.43;0.70;;;;;;;3.76;100.00;100897.25;6126369;29;20051;-80
2022/02/22 02:25:14;;;;;;;4.50;1.67;;;;;;;3.63;100.00;100909.69;6127004;29;20055;-80
2022/02/22 02:28:15;;;;;;;1.63;0.82;;;;;;;3.63;100.00;100903.63;6127293;29;20388;-82
2022/02/22 02:31:17;;;;;;;4.10;1.33;;;;;;;3.65;100.00;100909.66;6126864;28;20055;-81
2022/02/22 02:34:20;;;;;;;1.75;0.65;;;;;;;3.67;100.00;100906.13;6127476;29;20496;-81
2022/02/22 02:37:24;;;;;;;6.30;1.10;;;;;;;3.72;100.00;100919.88;6126502;29;20079;-80
2022/02/22 02:40:25;;;;;;;3.97;1.20;;;;;;;3.73;100.00;100921.59;6125119;29;20487;-81
2022/02/22 02:43:26;;;;;;;8.93;1.55;;;;;;;3.66;100.00;100929.56;6125935;29;20052;-81
2022/02/22 02:46:28;;;;;;;9.60;0.85;;;;;;;3.59;100.00;100943.56;6126520;29;20051;-80
2022/02/22 02:49:29;;;;;;;9.07;1.60;;;;;;;3.66;100.00;100950.34;6126590;29;20044;-81
2022/02/22 02:52:32;;;;;;;5.63;0.38;;;;;;;3.61;100.00;100940.06;6124836;29;20423;-81
2022/02/22 02:55:33;;;;;;;4.40;1.40;;;;;;;3.47;100.00;100942.09;6125895;29;20059;-80
2022/02/22 02:58:35;;;;;;;2.85;0.52;;;;;;;3.37;100.00;100944.03;6126161;29;20051;-81
2022/02/22 03:01:38;;;;;;;1.83;0.75;;;;;;;3.31;100.00;100938.94;6124921;29;20062;-80
2022/02/22 03:04:39;;;;;;;2.55;0.82;;;;;;;3.30;100.00;100938.09;6125305;29;20056;-80
2022/02/22 03:07:42;;;;;;;6.78;1.58;;;;;;;3.22;100.00;100939.97;6124267;29;20436;-80
2022/02/22 03:10:43;;;;;;;7.78;1.23;;;;;;;3.23;100.00;100940.84;6125234;29;20044;-80
2022/02/22 03:13:45;;;;;;;14.55;2.30;;;;;;;3.32;100.00;100958.84;6125437;29;20055;-80
2022/02/22 03:16:46;;;;;;;5.63;0.75;;;;;;;3.17;100.00;100952.19;6125792;29;20059;-80
2022/02/22 03:19:48;;;;;;;4.07;1.17;;;;;;;3.22;100.00;100962.50;6125565;29;20048;-81
2022/02/22 03:22:53;;;;;;;7.38;2.38;;;;;;;3.19;100.00;100967.78;6124740;29;20056;-81
2022/02/22 03:25:55;;;;;;;4.47;0.77;;;;;;;3.16;100.00;100970.41;6125208;29;20055;-80
2022/02/22 03:28:58;;;;;;;5.22;0.85;;;;;;;3.19;100.00;100971.22;6125025;29;20063;-81
2022/02/22 03:32:00;;;;;;;2.88;1.48;;;;;;;3.20;100.00;100979.88;6124374;29;20426;-80
2022/02/22 03:35:01;;;;;;;12.23;1.60;;;;;;;3.09;100.00;100993.06;6125772;29;20056;-80
2022/02/22 03:38:04;;;;;;;1.75;0.90;;;;;;;3.05;100.00;100981.88;6129472;29;20054;-80
2022/02/22 03:41:05;;;;;;;3.78;1.80;;;;;;;3.14;100.00;100992.97;6140781;28;20406;-80
2022/02/22 03:44:07;;;;;;;10.85;1.00;;;;;;;3.13;100.00;100997.28;6142468;28;20046;-81
2022/02/22 03:47:09;;;;;;;9.35;2.15;;;;;;;3.05;100.00;100997.44;6125756;29;20423;-80
2022/02/22 03:50:13;;;;;;;10.80;1.08;;;;;;;3.06;100.00;101011.28;6127957;28;20571;-79
2022/02/22 03:53:16;;;;;;;5.85;1.33;;;;;;;3.02;100.00;101020.84;6131109;28;20054;-80
2022/02/22 03:56:17;;;;;;;8.75;2.00;;;;;;;3.04;100.00;101019.09;6132798;28;20170;-79
2022/02/22 03:59:19;;;;;;;10.55;1.25;;;;;;;3.04;100.00;101015.63;6134938;28;20048;-79
2022/02/22 04:02:21;;;;;;;7.20;1.58;;;;;;;3.07;100.00;101013.00;6131517;29;20131;-81
2022/02/22 04:05:23;;;;;;;17.58;1.65;;;;;;;3.12;100.00;101025.88;6123800;29;20059;-80
2022/02/22 04:08:26;;;;;;;4.80;1.10;;;;;;;3.07;100.00;101027.72;6123652;29;20117;-80
2022/02/22 04:11:27;;;;;;;4.45;1.25;;;;;;;3.18;100.00;101017.97;6123069;29;20048;-80
2022/02/22 04:14:28;;;;;;;12.52;1.98;;;;;;;3.37;100.00;101026.31;6123493;29;20415;-81
2022/02/22 04:17:30;;;;;;;4.35;1.15;;;;;;;3.35;100.00;101031.50;6124566;29;20056;-80
2022/02/22 04:20:31;;;;;;;1.58;0.73;;;;;;;3.44;100.00;101046.06;6141268;28;20051;-80
2022/02/22 04:23:34;;;;;;;18.17;1.75;;;;;;;3.47;100.00;101066.78;6128130;29;20048;-80
2022/02/22 04:26:35;;;;;;;6.13;1.13;;;;;;;3.40;100.00;101067.78;6128185;29;20048;-80
2022/02/22 04:29:37;;;;;;;8.95;1.40;;;;;;;3.26;100.00;101079.28;6127754;29;20458;-80
2022/02/22 04:32:38;;;;;;;3.42;1.00;;;;;;;3.02;100.00;101090.94;6127606;29;20059;-80
2022/02/22 04:35:39;;;;;;;3.80;1.02;;;;;;;2.87;100.00;101079.97;6128174;29;20419;-80
2022/02/22 04:38:43;;;;;;;2.55;1.33;;;;;;;2.84;100.00;101085.22;6128226;29;20056;-80
2022/02/22 04:41:44;;;;;;;8.57;1.02;;;;;;;2.70;100.00;101099.25;6128048;29;20051;-80
2022/02/22 04:44:46;;;;;;;4.20;1.50;;;;;;;2.68;100.00;101102.75;6128910;29;20059;-81
2022/02/22 04:47:47;;;;;;;8.95;2.30;;;;;;;2.61;100.00;101098.53;6128288;29;20056;-80
2022/02/22 04:50:49;;;;;;;4.68;1.75;;;;;;;2.58;100.00;101098.56;6128395;29;20181;-80
2022/02/22 04:53:51;;;;;;;8.38;1.45;;;;;;;2.61;100.00;101090.75;6129019;29;20499;-80
2022/02/22 04:56:54;;;;;;;3.92;1.30;;;;;;;2.59;100.00;101083.00;6128649;29;20495;-80
2022/02/22 04:59:55;;;;;;;12.32;1.77;;;;;;;2.65;100.00;101110.59;6129546;29;20431;-80
2022/02/22 05:02:57;;;;;;;13.32;1.27;;;;;;;2.65;100.00;101097.63;6128723;29;20071;-80
2022/02/22 05:05:58;;;;;;;2.47;0.73;;;;;;;2.59;100.00;101079.53;6108850;29;20056;-79
2022/02/22 05:09:01;;;;;;;3.22;0.85;;;;;;;2.71;100.00;101106.16;6113946;28;20297;-80
2022/02/22 05:12:03;;;;;;;7.70;1.38;;;;;;;2.73;100.00;101095.78;6117901;29;20044;-80
2022/02/22 05:15:05;;;;;;;5.28;1.45;;;;;;;2.80;100.00;101106.00;6110595;28;20078;-77
2022/02/22 05:18:07;;;;;;;7.72;1.98;;;;;;;2.84;100.00;101100.78;6103283;28;20056;-78
2022/02/22 05:21:08;;;;;;;5.60;1.95;;;;;;;2.79;100.00;101108.63;6101984;28;20048;-79
2022/02/22 05:24:11;;;;;;;10.43;1.92;;;;;;;2.78;100.00;101118.16;6102657;28;20056;-78
2022/02/22 05:27:12;;;;;;;7.38;1.77;;;;;;;2.84;100.00;101113.75;6104847;28;20059;-77
2022/02/22 05:30:16;;;;;;;4.53;1.27;;;;;;;2.80;100.00;101110.34;6111327;29;20141;-78
2022/02/22 05:33:18;;;;;;;7.00;0.90;;;;;;;2.75;100.00;101112.16;6112690;29;20055;-78
2022/02/22 05:36:20;;;;;;;7.75;2.00;;;;;;;2.74;100.00;101119.09;6113267;29;20052;-78
2022/02/22 05:39:23;;;;;;;1.38;0.82;;;;;;;2.72;100.00;101126.03;6109155;29;20148;-79
2022/02/22 05:42:26;;;;;;;7.50;1.10;;;;;;;2.66;100.00;101123.53;6101600;28;20048;-79
2022/02/22 05:45:27;;;;;;;5.43;1.15;;;;;;;2.69;100.00;101131.28;6102431;29;20052;-79
2022/02/22 05:48:29;;;;;;;3.42;1.05;;;;;;;2.65;100.00;101132.19;6102689;28;20056;-79
2022/02/22 05:51:30;;;;;;;3.20;1.35;;;;;;;2.68;100.00;101131.28;6133306;28;20054;-79
2022/02/22 05:54:33;;;;;;;2.67;1.17;;;;;;;2.72;100.00;101151.13;6142702;29;20399;-79
2022/02/22 05:57:34;;;;;;;7.78;2.40;;;;;;;2.55;100.00;101153.97;6149509;28;20562;-78
2022/02/22 06:00:36;;;;;;;8.15;1.42;;;;;;;2.56;100.00;101154.81;6149181;28;20051;-78
2022/02/22 06:03:37;;;;;;;4.80;1.02;;;;;;;2.59;100.00;101152.16;6131393;28;20530;-78
2022/02/22 06:06:38;;;;;;;5.70;2.03;;;;;;;2.53;100.00;101160.91;6149550;28;20499;-78
2022/02/22 06:09:41;;;;;;;7.13;1.27;;;;;;;2.53;100.00;101161.75;6149455;28;20055;-78
2022/02/22 06:12:45;;;;;;;4.68;0.82;;;;;;;2.56;100.00;101180.78;6147771;28;20047;-78
2022/02/22 06:15:46;;;;;;;4.32;2.83;;;;;;;2.53;100.00;101179.91;6149278;28;20051;-77
2022/02/22 06:18:47;;;;;;;7.53;1.75;;;;;;;2.55;100.00;101182.50;6149839;28;20055;-78
2022/02/22 06:21:49;;;;;;;2.60;1.30;;;;;;;2.52;100.00;101192.91;6148281;28;20486;-77
2022/02/22 06:24:51;;;;;;;16.55;2.15;;;;;;;2.58;100.00;101194.56;6149224;28;20051;-78
2022/02/22 06:27:55;;;;;;;3.10;0.90;;;;;;;2.50;100.00;101194.69;6148987;28;20055;-78
2022/02/22 06:30:56;;;;;;;14.57;2.28;;;;;;;2.47;100.00;101195.56;6148091;28;20058;-77
2022/02/22 06:33:58;;;;;;;6.78;1.08;;;;;;;2.48;100.00;101201.63;6148891;28;20063;-77
2022/02/22 06:36:59;;;;;;;10.20;1.45;;;;;;;2.47;100.00;101205.94;6149118;28;20059;-78
2022/02/22 06:40:02;;;;;;;14.70;1.80;;;;;;;2.50;100.00;101208.50;6148712;28;20055;-77
2022/02/22 06:43:03;;;;;;;4.80;0.90;;;;;;;2.51;100.00;101212.81;6147140;28;20051;-78
2022/02/22 06:46:05;;;;;;;5.43;1.98;;;;;;;2.51;100.00;101217.16;6125514;28;20583;-78
2022/02/22 06:49:06;;;;;;;4.32;0.82;;;;;;;2.63;100.00;101222.16;6107852;28;20056;-77
2022/02/22 06:52:08;;;;;;;2.53;1.17;;;;;;;2.59;100.00;101212.72;6100486;28;20048;-78
2022/02/22 06:55:13;;;;;;;5.72;0.98;;;;;;;2.64;100.00;101225.63;6105830;28;20449;-79
2022/02/22 06:58:15;;;;;;;0.88;0.50;;;;;;;2.59;100.00;101220.50;6112756;29;20071;-77
2022/02/22 07:01:17;;;;;;;2.53;1.90;;;;;;;2.61;100.00;101226.53;6110514;29;20075;-77
2022/02/22 07:04:18;;;;;;;1.35;0.73;;;;;;;2.54;100.00;101230.06;6110874;29;20091;-77
2022/02/22 07:07:19;;;;;;;5.60;1.60;;;;;;;2.57;100.00;101235.22;6111464;28;20051;-77
2022/02/22 07:10:21;;;;;;;7.20;1.52;;;;;;;2.63;100.00;101242.06;6108821;28;20496;-77
2022/02/22 07:13:23;;;;;;;15.25;1.45;;;;;;;2.63;100.00;101242.06;6110801;29;20055;-77
2022/02/22 07:16:25;;;;;;;2.42;0.82;;;;;;;2.77;100.00;101251.41;6111297;29;20052;-76
2022/02/22 07:19:26;;;;;;;6.13;1.85;;;;;;;2.76;100.00;101243.63;6110178;28;20051;-77
2022/02/22 07:22:27;;;;;;;6.13;1.13;;;;;;;2.86;100.00;101253.03;6110747;28;20059;-77
2022/02/22 07:25:30;;;;;;;6.18;2.75;;;;;;;2.90;100.00;101262.47;6109840;28;20078;-77
2022/02/22 07:28:33;;;;;;;3.60;1.17;;;;;;;2.86;100.00;101265.13;6112056;29;20060;-77
2022/02/22 07:31:34;;;;;;;2.67;0.77;;;;;;;2.91;100.00;101264.19;6109004;29;20048;-76
2022/02/22 07:34:35;;;;;;;12.77;1.65;;;;;;;2.97;100.00;101268.44;6111390;29;20045;-77
2022/02/22 07:37:37;;;;;;;6.97;1.10;;;;;;;2.91;100.00;101272.00;6111428;29;20067;-78
2022/02/22 07:40:39;;;;;;;5.57;1.38;;;;;;;2.94;100.00;101269.34;6110863;29;20055;-78
2022/02/22 07:43:43;;;;;;;2.03;0.70;;;;;;;3.07;100.00;101262.25;6110892;29;20059;-77
2022/02/22 07:46:44;;;;;;;6.38;0.95;;;;;;;3.02;100.00;101266.63;6124778;29;20047;-77
2022/02/22 07:49:45;;;;;;;2.35;1.33;;;;;;;3.04;100.00;101281.34;6121098;29;20526;-77
2022/02/22 07:52:47;;;;;;;4.93;1.73;;;;;;;3.09;100.00;101276.06;6120605;29;20415;-77
2022/02/22 07:55:48;;;;;;;7.63;1.45;;;;;;;3.13;100.00;101282.06;6119122;29;20490;-77
2022/02/22 07:58:51;;;;;;;3.65;1.30;;;;;;;3.15;100.00;101281.16;6119860;29;20046;-78
2022/02/22 08:01:52;;;;;;;7.28;1.58;;;;;;;3.14;100.00;101299.38;6117900;29;20052;-75
2022/02/22 08:04:54;;;;;;;4.90;0.98;;;;;;;3.22;100.00;101295.75;6117838;28;20071;-77
2022/02/22 08:07:55;;;;;;;4.05;1.73;;;;;;;3.26;100.00;101294.84;6119544;28;20043;-77
2022/02/22 08:10:56;;;;;;;7.25;1.10;;;;;;;3.39;100.00;101303.31;6117659;29;20051;-76
2022/02/22 08:14:00;;;;;;;12.70;2.45;;;;;;;3.38;100.00;101299.00;6118309;29;20063;-77
2022/02/22 08:17:01;;;;;;;8.98;1.85;;;;;;;3.47;100.00;101311.88;6131423;29;20051;-76
2022/02/22 08:20:03;;;;;;;12.10;1.50;;;;;;;3.56;100.00;101316.94;6133818;28;20067;-76
2022/02/22 08:23:04;;;;;;;1.88;0.57;;;;;;;3.66;100.00;101309.00;6135826;29;20454;-76
2022/02/22 08:26:07;;;;;;;11.52;1.33;;;;;;;3.72;100.00;101304.53;6139433;28;20058;-77
2022/02/22 08:29:10;;;;;;;3.50;0.98;;;;;;;3.80;100.00;101307.88;6121705;28;20074;-77
2022/02/22 08:32:11;;;;;;;10.48;0.80;;;;;;;3.83;100.00;101313.94;6127029;28;20040;-75
2022/02/22 08:35:13;;;;;;;4.50;1.10;;;;;;;3.80;100.00;101313.06;6135035;29;20059;-77
2022/02/22 08:38:14;;;;;;;6.60;1.40;;;;;;;3.92;100.00;101318.97;6119892;29;20066;-77
2022/02/22 08:41:15;;;;;;;8.10;1.27;;;;;;;4.00;100.00;101314.50;6124135;29;20055;-77
2022/02/22 08:44:18;;;;;;;6.78;1.20;;;;;;;4.02;100.00;101318.78;6124228;28;20058;-77
2022/02/22 08:47:20;;;;;;;11.27;1.02;;;;;;;4.04;100.00;101314.44;6102086;29;20048;-77
2022/02/22 08:50:22;;;;;;;7.18;2.45;;;;;;;4.13;100.00;101320.31;6100850;29;20063;-76
2022/02/22 08:53:23;;;;;;;1.83;0.70;;;;;;;4.18;100.00;101314.19;6100897;29;20048;-77
2022/02/22 08:56:25;;;;;;;7.68;2.00;;;;;;;4.17;100.00;101309.00;6100906;29;20048;-75
2022/02/22 08:59:28;;;;;;;9.07;0.80;;;;;;;4.31;100.00;101317.41;6101934;29;20056;-77
2022/02/22 09:02:29;;;;;;;1.27;0.38;;;;;;;4.32;100.00;101326.94;6102536;28;20523;-76
2022/02/22 09:05:32;;;;;;;5.05;1.25;;;;;;;4.29;100.00;101322.63;6099844;28;20155;-77
2022/02/22 09:08:34;;;;;;;5.47;0.75;;;;;;;4.38;100.00;101323.38;6102559;28;20520;-76
2022/02/22 09:11:35;;;;;;;2.75;1.58;;;;;;;4.44;100.00;101321.50;6102456;28;20055;-76
2022/02/22 09:14:38;;;;;;;11.98;1.60;;;;;;;4.50;100.00;101315.34;6102598;28;20052;-76
2022/02/22 09:17:40;;;;;;;9.60;1.00;;;;;;;4.62;100.00;101319.44;6103708;29;20048;-75
2022/02/22 09:20:41;;;;;;;3.22;0.77;;;;;;;4.71;100.00;101322.69;6102096;29;20055;-77
2022/02/22 09:23:43;;;;;;;2.58;0.80;;;;;;;4.70;100.00;101331.41;6104132;29;20055;-76
2022/02/22 09:26:44;;;;;;;8.65;1.55;;;;;;;4.76;100.00;101326.06;6103791;28;20052;-78
2022/02/22 09:29:47;;;;;;;3.83;2.35;;;;;;;4.83;100.00;101319.00;6104018;28;20634;-78
2022/02/22 09:32:50;;;;;;;6.88;0.85;;;;;;;4.99;100.00;101327.34;6104163;28;20048;-77
2022/02/22 09:35:51;;;;;;;11.90;1.13;;;;;;;5.07;100.00;101325.44;6126120;28;20063;-77
2022/02/22 09:38:52;;;;;;;6.60;1.13;;;;;;;5.18;100.00;101322.59;6125593;29;20048;-77
2022/02/22 09:41:54;;;;;;;7.35;1.38;;;;;;;5.16;100.00;101309.63;6111677;29;20055;-76
2022/02/22 09:44:56;;;;;;;15.32;1.60;;;;;;;5.25;100.00;101324.19;6128603;29;20048;-76
2022/02/22 09:48:01;;;;;;;6.60;1.52;;;;;;;5.12;100.00;101313.19;6127938;29;20058;-80
2022/02/22 09:51:02;;;;;;;8.57;1.27;;;;;;;5.03;100.00;101323.78;6121862;29;20091;-78
2022/02/22 09:54:04;;;;;;;8.15;1.48;;;;;;;4.86;100.00;101324.16;6103058;28;20079;-76
2022/02/22 09:57:05;;;;;;;6.57;1.17;;;;;;;5.00;100.00;101324.72;6103549;29;20055;-77
2022/02/22 10:00:18;;;;;;;1.98;0.68;;;;;;;5.04;100.00;101330.72;6102806;28;20052;-76
2022/02/22 10:03:20;;;;;;;9.93;0.98;;;;;;;5.20;100.00;101329.50;6103261;29;20044;-76
2022/02/22 10:06:22;;;;;;;7.05;1.55;;;;;;;5.27;100.00;101325.88;6104290;28;20084;-78
2022/02/22 10:09:24;;;;;;;3.65;1.30;;;;;;;5.35;100.00;101328.31;6121267;28;20531;-79
2022/02/22 10:12:31;;;;;;;12.48;1.40;;;;;;;5.25;100.00;101335.47;6127439;29;20055;-79
2022/02/22 10:15:38;;;;;;;3.97;1.60;;;;;;;5.31;100.00;101330.16;6128112;29;20055;-79
2022/02/22 10:18:50;;;;;;;6.60;1.77;;;;;;;5.24;100.00;101317.28;6127831;29;20125;-80
2022/02/22 10:21:56;;;;;;;1.92;1.00;;;;;;;5.25;100.00;101306.81;6127666;29;20511;-79
2022/02/22 10:25:06;;;;;;;2.30;1.00;;;;;;;5.18;100.00;101306.97;6126914;29;20109;-76
2022/02/22 10:28:07;;;;;;;5.45;1.13;;;;;;;5.33;100.00;101312.72;6130777;28;20055;-77
2022/02/22 10:31:10;;;;;;;2.95;0.73;;;;;;;5.47;100.00;101316.75;6140498;28;20059;-76
2022/02/22 10:34:12;;;;;;;7.35;1.95;;;;;;;5.54;100.00;101320.91;6139778;28;20051;-78
2022/02/22 10:37:13;;;;;;;6.10;1.20;;;;;;;5.70;100.00;101316.22;6135911;29;20062;-76
2022/02/22 10:40:15;;;;;;;7.28;1.95;;;;;;;5.81;100.00;101312.47;6141446;29;20055;-76
2022/02/22 10:43:21;;;;;;;4.32;0.95;;;;;;;5.93;100.00;101321.75;6111296;29;20052;-78
2022/02/22 10:46:26;;;;;;;3.63;0.90;;;;;;;5.92;100.00;101321.78;6103427;29;20476;-78
2022/02/22 10:49:31;;;;;;;2.88;1.27;;;;;;;5.93;100.00;101326.13;6103052;29;20052;-78
2022/02/22 10:52:33;;;;;;;16.55;1.90;;;;;;;5.97;100.00;101327.75;6131216;29;20051;-77
2022/02/22 10:55:34;;;;;;;5.57;1.60;;;;;;;5.94;100.00;101310.41;6149952;28;20419;-76
2022/02/22 10:58:39;;;;;;;6.20;1.42;;;;;;;6.08;100.00;101308.31;6142470;28;20051;-77
2022/02/22 11:01:41;;;;;;;9.63;1.73;;;;;;;6.15;100.00;101308.16;6149793;28;20134;-78
2022/02/22 11:04:43;;;;;;;7.40;1.40;;;;;;;6.32;100.00;101316.41;6150539;28;20055;-78
2022/02/22 11:07:51;;;;;;;5.43;1.10;;;;;;;6.35;100.00;101319.78;6150030;28;20050;-76
2022/02/22 11:10:56;;;;;;;3.80;1.27;;;;;;;6.36;100.00;101307.59;6148771;28;20550;-77
2022/02/22 11:13:59;;;;;;;11.48;0.88;;;;;;;6.40;100.00;101311.81;6132448;28;20048;-78
2022/02/22 11:17:16;;;;;;;1.77;0.60;;;;;;;6.54;100.00;101295.78;6126095;29;20107;-77
2022/02/22 11:20:27;;;;;;;3.00;1.42;;;;;;;6.70;100.00;101280.56;6125643;28;20058;-75
2022/02/22 11:23:29;;;;;;;8.43;1.42;;;;;;;6.72;100.00;101274.41;6125029;29;20411;-77
2022/02/22 11:26:44;;;;;;;2.78;1.05;;;;;;;6.61;100.00;101282.53;6125796;28;20052;-79
2022/02/22 11:29:56;;;;;;;8.75;1.15;;;;;;;6.53;100.00;101273.19;6124256;29;20711;-76
2022/02/22 11:33:01;;;;;;;5.03;0.80;;;;;;;6.50;100.00;101255.00;6125242;29;20059;-77
2022/02/22 11:36:05;;;;;;;3.45;1.17;;;;;;;6.59;100.00;101241.69;6128965;29;20188;-76
2022/02/22 11:39:19;;;;;;;3.20;1.00;;;;;;;6.63;100.00;101240.69;6148468;28;20107;-77
2022/02/22 11:42:23;;;;;;;5.30;1.20;;;;;;;6.81;100.00;101227.09;6139716;28;20113;-77
2022/02/22 11:45:26;;;;;;;2.17;0.93;;;;;;;6.89;100.00;101219.03;6125605;29;20054;-77
2022/02/22 11:48:35;;;;;;;5.28;1.08;;;;;;;6.93;100.00;101209.34;6124726;29;20055;-78
2022/02/22 11:51:45;;;;;;;5.05;0.68;;;;;;;6.89;100.00;101219.03;6124372;29;20063;-79
2022/02/22 11:54:48;;;;;;;2.28;0.60;;;;;;;6.99;100.00;101212.59;6125884;29;20415;-77
2022/02/22 11:57:51;;;;;;;0.90;0.60;;;;;;;7.07;100.00;101212.38;6125328;29;20055;-76
2022/02/22 12:00:55;;;;;;;1.33;0.85;;;;;;;7.04;100.00;101215.94;6124573;29;20063;-76
2022/02/22 12:03:59;;;;;;;2.47;0.95;;;;;;;7.11;100.00;101207.00;6124361;29;20056;-76
2022/02/22 12:07:01;;;;;;;6.32;1.08;;;;;;;7.06;100.00;101179.31;6124602;29;20419;-77
2022/02/22 12:10:07;;;;;;;1.42;0.47;;;;;;;7.16;100.00;101166.78;6124719;29;20060;-77
2022/02/22 12:13:09;;;;;;;12.02;1.33;;;;;;;7.13;100.00;101162.53;6113636;29;20522;-76
2022/02/22 12:16:14;;;;;;;4.38;1.10;;;;;;;7.19;100.00;101164.09;6100321;29;20500;-77
2022/02/22 12:19:20;;;;;;;8.18;1.13;;;;;;;7.11;100.00;101156.50;6100493;29;20103;-79
2022/02/22 12:22:22;;;;;;;4.60;1.00;;;;;;;7.14;100.00;101143.34;6100569;29;20048;-76
2022/02/22 12:25:25;;;;;;;5.32;1.40;;;;;;;7.04;100.00;101140.19;6100444;29;20056;-76
2022/02/22 12:28:27;;;;;;;4.05;0.93;;;;;;;7.11;100.00;101153.88;6111557;29;20086;-77
2022/02/22 12:31:31;;;;;;;9.45;1.25;;;;;;;6.92;100.00;101134.47;6140006;28;20063;-79
2022/02/22 12:34:34;;;;;;;4.70;2.05;;;;;;;6.97;100.00;101149.09;6139063;28;20051;-75
2022/02/22 12:37:41;;;;;;;7.75;0.82;;;;;;;6.99;100.00;101136.81;6135590;28;20056;-76
2022/02/22 12:40:43;;;;;;;9.07;1.40;;;;;;;6.96;100.00;101142.16;6124584;29;20135;-77
2022/02/22 12:43:46;;;;;;;4.82;0.95;;;;;;;7.04;100.00;101154.97;6109348;29;20052;-77
2022/02/22 12:46:50;;;;;;;4.30;0.77;;;;;;;6.86;100.00;101136.38;6103735;29;20075;-77
2022/02/22 12:50:00;;;;;;;3.58;1.52;;;;;;;6.94;100.00;101143.97;6124524;29;20074;-80
2022/02/22 12:53:02;;;;;;;8.90;0.75;;;;;;;6.92;100.00;101140.56;6149326;29;20054;-77
2022/02/22 12:56:03;;;;;;;5.38;0.90;;;;;;;7.05;100.00;101120.13;6152041;28;20503;-77
2022/02/22 12:59:07;;;;;;;1.42;0.90;;;;;;;6.94;100.00;101104.78;6144197;28;20051;-77
2022/02/22 13:02:08;;;;;;;4.57;1.00;;;;;;;6.86;100.00;101098.97;6150101;28;20082;-76
2022/02/22 13:05:12;;;;;;;5.80;2.08;;;;;;;6.83;100.00;101093.81;6151606;28;20047;-76
2022/02/22 13:08:16;;;;;;;5.07;1.02;;;;;;;6.82;100.00;101079.06;6150652;28;20118;-78
2022/02/22 13:11:17;;;;;;;5.55;1.10;;;;;;;6.83;100.00;101071.16;6150580;28;20498;-76
2022/02/22 13:14:20;;;;;;;6.90;1.50;;;;;;;6.86;100.00;101060.63;6151067;28;20055;-77
2022/02/22 13:17:26;;;;;;;5.85;1.20;;;;;;;7.00;100.00;101067.16;6152955;28;20052;-77
2022/02/22 13:20:38;;;;;;;1.88;1.10;;;;;;;7.00;100.00;101052.34;6150864;28;20051;-78
2022/02/22 13:23:40;;;;;;;7.32;1.05;;;;;;;7.04;100.00;101059.16;6151615;28;20047;-77
2022/02/22 13:26:45;;;;;;;7.53;1.65;;;;;;;7.01;100.00;101043.59;6150799;28;20052;-80
2022/02/22 13:29:56;;;;;;;18.55;1.65;;;;;;;7.00;100.00;101043.66;6151015;28;20123;-80
2022/02/22 13:33:03;;;;;;;5.13;2.25;;;;;;;7.03;100.00;101038.28;6151086;28;20185;-77
2022/02/22 13:36:12;;;;;;;11.95;1.58;;;;;;;6.97;100.00;101036.75;6147558;28;20052;-77
2022/02/22 13:39:20;;;;;;;8.77;1.52;;;;;;;6.90;100.00;101027.41;6127534;28;20052;-76
2022/02/22 13:42:25;;;;;;;8.65;1.27;;;;;;;7.09;100.00;101004.97;6119059;29;20055;-77
2022/02/22 13:45:30;;;;;;;12.40;1.60;;;;;;;6.92;100.00;101003.84;6103699;29;20500;-77
2022/02/22 13:48:33;;;;;;;3.20;1.27;;;;;;;6.83;100.00;101005.00;6103871;29;20055;-76
2022/02/22 13:51:41;;;;;;;5.55;1.23;;;;;;;6.64;100.00;100996.94;6117981;29;20052;-78
2022/02/22 13:54:48;;;;;;;3.47;1.27;;;;;;;6.63;100.00;100999.59;6127126;28;20052;-76
2022/02/22 13:57:57;;;;;;;6.60;1.80;;;;;;;6.67;100.00;100993.34;6128407;29;20079;-76
2022/02/22 14:00:59;;;;;;;;;;;;;;;6.64;100.00;101002.16;6130396;28;20047;-76
2022/02/22 14:04:00;;;;;;;6.53;0.93;;;;;;;6.62;100.00;101003.97;6137169;29;20293;-75
2022/02/22 14:07:05;;;;;;;2.38;0.82;;;;;;;6.54;100.00;100985.94;6125867;29;20052;-76
2022/02/22 14:10:07;;;;;;;7.05;1.20;;;;;;;6.42;100.00;100980.28;6125192;28;20063;-76